createdAt,value
2024-05-09T00:00:38.796Z,862.00
2024-05-09T00:01:32.166Z,620.00
2024-05-09T00:02:32.195Z,671.00
2024-05-09T00:03:32.161Z,823.00
2024-05-09T00:04:32.203Z,992.00
2024-05-09T00:05:32.313Z,1167.00
2024-05-09T00:06:32.162Z,1108.00
2024-05-09T00:07:32.171Z,1032.00
2024-05-09T00:08:32.306Z,958.00
2024-05-09T00:09:32.145Z,899.00
2024-05-09T00:10:36.217Z,851.00
2024-05-09T00:11:32.220Z,848.00
2024-05-09T00:12:32.160Z,799.00
2024-05-09T00:13:32.147Z,760.00
2024-05-09T00:14:32.355Z,733.00
2024-05-09T00:15:32.186Z,705.00
2024-05-09T00:16:32.187Z,677.00
2024-05-09T00:17:32.353Z,661.00
2024-05-09T00:18:32.328Z,655.00
2024-05-09T00:19:32.408Z,647.00
2024-05-09T00:20:38.216Z,641.00
2024-05-09T00:21:32.192Z,641.00
2024-05-09T00:22:32.191Z,641.00
2024-05-09T00:23:32.256Z,633.00
2024-05-09T00:24:32.194Z,630.00
2024-05-09T00:25:32.198Z,624.00
2024-05-09T00:26:32.276Z,618.00
2024-05-09T00:27:32.193Z,615.00
2024-05-09T00:28:32.190Z,612.00
2024-05-09T00:29:32.280Z,604.00
2024-05-09T00:30:35.566Z,603.00
2024-05-09T00:31:32.198Z,603.00
2024-05-09T00:32:32.412Z,604.00
2024-05-09T00:33:32.337Z,602.00
2024-05-09T00:34:32.281Z,601.00
2024-05-09T00:35:32.388Z,595.00
2024-05-09T00:36:32.198Z,600.00
2024-05-09T00:37:32.201Z,604.00
2024-05-09T00:38:32.341Z,600.00
2024-05-09T00:39:32.207Z,600.00
2024-05-09T00:40:38.914Z,601.00
2024-05-09T00:41:32.286Z,601.00
2024-05-09T00:42:32.217Z,602.00
2024-05-09T00:43:32.211Z,600.00
2024-05-09T00:44:32.215Z,602.00
2024-05-09T00:45:32.211Z,598.00
2024-05-09T00:46:32.243Z,602.00
2024-05-09T00:47:32.453Z,607.00
2024-05-09T00:48:32.414Z,600.00
2024-05-09T00:49:32.391Z,603.00
2024-05-09T00:50:36.452Z,601.00
2024-05-09T00:51:32.273Z,602.00
2024-05-09T00:52:32.275Z,602.00
2024-05-09T00:53:32.392Z,602.00
2024-05-09T00:54:32.268Z,602.00
2024-05-09T00:55:32.274Z,597.00
2024-05-09T00:56:32.331Z,600.00
2024-05-09T00:57:32.328Z,604.00
2024-05-09T00:58:32.317Z,601.00
2024-05-09T00:59:32.382Z,606.00
2024-05-09T01:00:38.709Z,601.00
2024-05-09T01:01:32.415Z,601.00
2024-05-09T01:02:32.551Z,603.00
2024-05-09T01:03:32.614Z,602.00
2024-05-09T01:04:32.383Z,603.00
2024-05-09T01:05:32.486Z,604.00
2024-05-09T01:06:32.323Z,600.00
2024-05-09T01:07:32.317Z,602.00
2024-05-09T01:08:32.489Z,600.00
2024-05-09T01:09:32.437Z,604.00
2024-05-09T01:10:35.027Z,600.00
2024-05-09T01:11:32.415Z,600.00
2024-05-09T01:12:32.414Z,601.00
2024-05-09T01:13:32.334Z,601.00
2024-05-09T01:14:32.412Z,603.00
2024-05-09T01:15:32.348Z,602.00
2024-05-09T01:16:32.327Z,602.00
2024-05-09T01:17:32.528Z,605.00
2024-05-09T01:18:32.473Z,604.00
2024-05-09T01:19:32.718Z,603.00
2024-05-09T01:20:40.838Z,601.00
2024-05-09T01:21:32.403Z,601.00
2024-05-09T01:22:32.406Z,602.00
2024-05-09T01:23:32.588Z,603.00
2024-05-09T01:24:32.396Z,606.00
2024-05-09T01:25:32.390Z,604.00
2024-05-09T01:26:32.494Z,600.00
2024-05-09T01:27:32.445Z,606.00
2024-05-09T01:28:32.421Z,604.00
2024-05-09T01:29:32.475Z,604.00
2024-05-09T01:30:35.662Z,603.00
2024-05-09T01:31:32.509Z,604.00
2024-05-09T01:32:32.612Z,605.00
2024-05-09T01:33:32.983Z,604.00
2024-05-09T01:34:32.462Z,606.00
2024-05-09T01:35:32.506Z,605.00
2024-05-09T01:36:32.443Z,605.00
2024-05-09T01:37:32.460Z,600.00
2024-05-09T01:38:32.511Z,600.00
2024-05-09T01:39:32.452Z,604.00
2024-05-09T01:40:38.023Z,603.00
2024-05-09T01:41:32.479Z,604.00
2024-05-09T01:42:32.444Z,605.00
2024-05-09T01:43:32.444Z,605.00
2024-05-09T01:44:32.512Z,604.00
2024-05-09T01:45:32.480Z,602.00
2024-05-09T01:46:32.473Z,601.00
2024-05-09T01:47:32.604Z,602.00
2024-05-09T01:48:32.551Z,603.00
2024-05-09T01:49:32.576Z,605.00
2024-05-09T01:50:38.666Z,605.00
2024-05-09T01:51:32.493Z,606.00
2024-05-09T01:52:32.480Z,607.00
2024-05-09T01:53:32.585Z,606.00
2024-05-09T01:54:32.477Z,607.00
2024-05-09T01:55:32.504Z,604.00
2024-05-09T01:56:32.588Z,609.00
2024-05-09T01:57:32.518Z,603.00
2024-05-09T01:58:32.526Z,603.00
2024-05-09T01:59:32.640Z,601.00
2024-05-09T02:00:38.974Z,608.00
2024-05-09T02:01:55.401Z,608.00
2024-05-09T02:02:32.621Z,609.00
2024-05-09T02:03:32.675Z,610.00
2024-05-09T02:04:32.601Z,611.00
2024-05-09T02:05:32.627Z,614.00
2024-05-09T02:06:32.569Z,615.00
2024-05-09T02:07:32.553Z,606.00
2024-05-09T02:08:32.639Z,608.00
2024-05-09T02:09:32.556Z,606.00
2024-05-09T02:10:33.458Z,607.00
2024-05-09T02:11:32.622Z,603.00
2024-05-09T02:12:32.713Z,608.00
2024-05-09T02:13:32.578Z,604.00
2024-05-09T02:14:32.613Z,603.00
2024-05-09T02:15:32.554Z,600.00
2024-05-09T02:16:32.563Z,602.00
2024-05-09T02:17:32.766Z,604.00
2024-05-09T02:18:32.702Z,603.00
2024-05-09T02:19:33.020Z,606.00
2024-05-09T02:20:36.349Z,603.00
2024-05-09T02:21:32.733Z,603.00
2024-05-09T02:22:32.796Z,604.00
2024-05-09T02:23:32.847Z,605.00
2024-05-09T02:24:32.854Z,605.00
2024-05-09T02:25:33.132Z,602.00
2024-05-09T02:26:33.029Z,609.00
2024-05-09T02:27:32.989Z,602.00
2024-05-09T02:28:33.041Z,602.00
2024-05-09T02:29:33.273Z,602.00
2024-05-09T02:30:39.111Z,603.00
2024-05-09T02:31:33.198Z,603.00
2024-05-09T02:32:33.339Z,604.00
2024-05-09T02:33:33.617Z,605.00
2024-05-09T02:34:33.241Z,605.00
2024-05-09T02:35:33.328Z,603.00
2024-05-09T02:36:33.190Z,601.00
2024-05-09T02:37:33.196Z,604.00
2024-05-09T02:38:33.436Z,606.00
2024-05-09T02:39:33.207Z,607.00
2024-05-09T02:40:37.304Z,604.00
2024-05-09T02:41:33.251Z,604.00
2024-05-09T02:42:33.208Z,606.00
2024-05-09T02:43:33.199Z,605.00
2024-05-09T02:44:33.281Z,604.00
2024-05-09T02:45:33.455Z,606.00
2024-05-09T02:46:33.428Z,606.00
2024-05-09T02:47:33.366Z,600.00
2024-05-09T02:48:33.272Z,601.00
2024-05-09T02:49:33.332Z,600.00
2024-05-09T02:50:38.324Z,605.00
2024-05-09T02:51:33.265Z,605.00
2024-05-09T02:52:33.259Z,606.00
2024-05-09T02:53:33.422Z,607.00
2024-05-09T02:54:33.286Z,609.00
2024-05-09T02:55:33.367Z,608.00
2024-05-09T02:56:33.310Z,603.00
2024-05-09T02:57:33.271Z,602.00
2024-05-09T02:58:33.312Z,603.00
2024-05-09T02:59:33.410Z,601.00
2024-05-09T03:00:39.243Z,605.00
2024-05-09T03:01:33.445Z,605.00
2024-05-09T03:02:33.459Z,606.00
2024-05-09T03:03:33.814Z,608.00
2024-05-09T03:04:33.525Z,608.00
2024-05-09T03:05:33.620Z,607.00
2024-05-09T03:06:33.416Z,606.00
2024-05-09T03:07:33.402Z,607.00
2024-05-09T03:08:33.491Z,607.00
2024-05-09T03:09:33.405Z,607.00
2024-05-09T03:11:32.479Z,604.00
2024-05-09T03:12:35.117Z,607.00
2024-05-09T03:13:33.426Z,607.00
2024-05-09T03:14:33.517Z,604.00
2024-05-09T03:15:33.430Z,607.00
2024-05-09T03:16:33.493Z,607.00
2024-05-09T03:17:33.688Z,603.00
2024-05-09T03:18:33.516Z,600.00
2024-05-09T03:19:33.494Z,604.00
2024-05-09T03:20:35.537Z,611.00
2024-05-09T03:21:33.430Z,611.00
2024-05-09T03:22:33.439Z,611.00
2024-05-09T03:23:33.500Z,611.00
2024-05-09T03:24:33.434Z,606.00
2024-05-09T03:25:33.636Z,603.00
2024-05-09T03:26:33.511Z,609.00
2024-05-09T03:27:33.445Z,605.00
2024-05-09T03:28:33.451Z,603.00
2024-05-09T03:29:33.542Z,608.00
2024-05-09T03:30:40.517Z,606.00
2024-05-09T03:31:33.456Z,607.00
2024-05-09T03:32:33.575Z,607.00
2024-05-09T03:33:33.766Z,607.00
2024-05-09T03:34:33.495Z,609.00
2024-05-09T03:35:33.602Z,603.00
2024-05-09T03:36:33.583Z,606.00
2024-05-09T03:37:33.633Z,604.00
2024-05-09T03:38:33.756Z,602.00
2024-05-09T03:39:33.716Z,605.00
2024-05-09T03:40:33.782Z,604.00
2024-05-09T03:41:33.835Z,604.00
2024-05-09T03:42:34.108Z,606.00
2024-05-09T03:43:33.882Z,603.00
2024-05-09T03:44:33.963Z,603.00
2024-05-09T03:45:33.978Z,605.00
2024-05-09T03:46:34.018Z,604.00
2024-05-09T03:47:34.224Z,603.00
2024-05-09T03:48:34.164Z,605.00
2024-05-09T03:49:34.303Z,605.00
2024-05-09T03:50:36.109Z,606.00
2024-05-09T03:51:34.179Z,607.00
2024-05-09T03:52:34.199Z,608.00
2024-05-09T03:53:34.295Z,607.00
2024-05-09T03:54:34.180Z,606.00
2024-05-09T03:55:34.189Z,606.00
2024-05-09T03:56:34.287Z,606.00
2024-05-09T03:57:34.177Z,604.00
2024-05-09T03:58:34.219Z,603.00
2024-05-09T03:59:34.283Z,606.00
2024-05-09T04:00:38.227Z,603.00
2024-05-09T04:01:34.355Z,604.00
2024-05-09T04:02:34.306Z,606.00
2024-05-09T04:03:34.412Z,605.00
2024-05-09T04:04:34.329Z,606.00
2024-05-09T04:05:35.023Z,607.00
2024-05-09T04:06:34.280Z,605.00
2024-05-09T04:07:34.261Z,609.00
2024-05-09T04:08:34.429Z,609.00
2024-05-09T04:09:34.256Z,605.00
2024-05-09T04:10:35.221Z,608.00
2024-05-09T04:11:34.450Z,606.00
2024-05-09T04:12:34.267Z,606.00
2024-05-09T04:13:34.270Z,603.00
2024-05-09T04:14:34.414Z,605.00
2024-05-09T04:15:34.295Z,604.00
2024-05-09T04:16:34.320Z,604.00
2024-05-09T04:17:34.709Z,608.00
2024-05-09T04:18:34.466Z,603.00
2024-05-09T04:19:34.560Z,606.00
2024-05-09T04:20:38.999Z,602.00
2024-05-09T04:21:34.531Z,602.00
2024-05-09T04:22:34.538Z,603.00
2024-05-09T04:23:34.682Z,604.00
2024-05-09T04:24:41.805Z,600.00
2024-05-09T04:25:42.828Z,600.00
2024-05-09T04:26:42.930Z,600.00
2024-05-09T04:27:42.801Z,600.00
2024-05-09T04:28:42.792Z,600.00
2024-05-09T04:29:42.836Z,601.00
2024-05-09T04:30:43.351Z,601.00
2024-05-09T04:31:50.677Z,600.00
2024-05-09T04:32:51.814Z,600.00
2024-05-09T04:33:51.816Z,600.00
2024-05-09T04:34:51.867Z,600.00
2024-05-09T04:35:51.618Z,600.00
2024-05-09T04:36:51.628Z,603.00
2024-05-09T04:37:51.658Z,600.00
2024-05-09T04:38:51.620Z,604.00
2024-05-09T04:39:51.614Z,603.00
2024-05-09T04:40:51.669Z,603.00
2024-05-09T04:41:51.621Z,601.00
2024-05-09T04:42:51.627Z,600.00
2024-05-09T04:43:51.718Z,603.00
2024-05-09T04:44:53.586Z,605.00
2024-05-09T04:45:51.684Z,605.00
2024-05-09T04:46:51.716Z,604.00
2024-05-09T04:47:52.047Z,602.00
2024-05-09T04:48:51.797Z,602.00
2024-05-09T04:49:51.768Z,601.00
2024-05-09T04:50:51.761Z,604.00
2024-05-09T04:51:51.690Z,604.00
2024-05-09T04:52:51.776Z,602.00
2024-05-09T04:53:51.744Z,609.00
2024-05-09T04:54:52.015Z,600.00
2024-05-09T04:55:51.723Z,601.00
2024-05-09T04:56:51.702Z,602.00
2024-05-09T04:57:51.693Z,601.00
2024-05-09T04:58:51.879Z,602.00
2024-05-09T04:59:51.700Z,603.00
2024-05-09T05:00:51.755Z,605.00
2024-05-09T05:01:51.811Z,607.00
2024-05-09T05:02:51.924Z,607.00
2024-05-09T05:03:52.018Z,604.00
2024-05-09T05:04:52.116Z,605.00
2024-05-09T05:05:51.858Z,603.00
2024-05-09T05:06:51.847Z,608.00
2024-05-09T05:07:51.903Z,602.00
2024-05-09T05:08:51.943Z,606.00
2024-05-09T05:09:51.969Z,603.00
2024-05-09T05:10:52.152Z,603.00
2024-05-09T05:11:52.113Z,604.00
2024-05-09T05:12:52.099Z,601.00
2024-05-09T05:13:52.210Z,603.00
2024-05-09T05:14:52.196Z,605.00
2024-05-09T05:15:52.357Z,602.00
2024-05-09T05:16:52.332Z,605.00
2024-05-09T05:17:52.491Z,606.00
2024-05-09T05:18:52.497Z,606.00
2024-05-09T05:19:52.659Z,603.00
2024-05-09T05:20:52.740Z,603.00
2024-05-09T05:21:52.541Z,605.00
2024-05-09T05:22:52.641Z,604.00
2024-05-09T05:23:52.633Z,605.00
2024-05-09T05:24:52.700Z,607.00
2024-05-09T05:25:53.373Z,604.00
2024-05-09T05:26:52.787Z,609.00
2024-05-09T05:27:52.831Z,604.00
2024-05-09T05:28:53.009Z,600.00
2024-05-09T05:29:52.988Z,605.00
2024-05-09T05:30:53.037Z,602.00
2024-05-09T05:31:53.264Z,604.00
2024-05-09T05:32:53.498Z,603.00
2024-05-09T05:33:53.275Z,605.00
2024-05-09T05:34:53.302Z,604.00
2024-05-09T05:35:53.265Z,605.00
2024-05-09T05:36:53.330Z,605.00
2024-05-09T05:37:53.423Z,605.00
2024-05-09T05:38:53.511Z,604.00
2024-05-09T05:39:53.502Z,604.00
2024-05-09T05:40:53.613Z,605.00
2024-05-09T05:41:53.631Z,607.00
2024-05-09T05:42:53.704Z,604.00
2024-05-09T05:43:53.806Z,605.00
2024-05-09T05:44:53.833Z,605.00
2024-05-09T05:45:53.943Z,605.00
2024-05-09T05:46:54.034Z,604.00
2024-05-09T05:47:54.295Z,604.00
2024-05-09T05:48:54.270Z,604.00
2024-05-09T05:49:54.236Z,604.00
2024-05-09T05:50:54.249Z,604.00
2024-05-09T05:51:54.288Z,606.00
2024-05-09T05:52:54.370Z,605.00
2024-05-09T05:53:54.405Z,605.00
2024-05-09T05:54:54.470Z,606.00
2024-05-09T05:55:54.566Z,603.00
2024-05-09T05:56:54.601Z,605.00
2024-05-09T05:57:54.705Z,604.00
2024-05-09T05:58:54.841Z,601.00
2024-05-09T05:59:54.784Z,607.00
2024-05-09T06:00:54.903Z,601.00
2024-05-09T06:01:54.966Z,602.00
2024-05-09T06:02:55.124Z,603.00
2024-05-09T06:03:55.140Z,603.00
2024-05-09T06:04:55.283Z,604.00
2024-05-09T06:05:55.244Z,605.00
2024-05-09T06:06:55.250Z,602.00
2024-05-09T06:07:55.341Z,610.00
2024-05-09T06:08:55.431Z,607.00
2024-05-09T06:09:55.511Z,607.00
2024-05-09T06:10:55.638Z,605.00
2024-05-09T06:11:55.718Z,606.00
2024-05-09T06:12:55.681Z,606.00
2024-05-09T06:13:55.759Z,606.00
2024-05-09T06:14:55.835Z,603.00
2024-05-09T06:15:55.877Z,603.00
2024-05-09T06:16:58.099Z,605.00
2024-05-09T06:17:56.044Z,610.00
2024-05-09T06:18:56.162Z,605.00
2024-05-09T06:19:56.041Z,606.00
2024-05-09T06:20:56.023Z,608.00
2024-05-09T06:21:55.960Z,606.00
2024-05-09T06:22:55.979Z,604.00
2024-05-09T06:23:55.981Z,607.00
2024-05-09T06:24:55.977Z,602.00
2024-05-09T06:25:56.030Z,604.00
2024-05-09T06:26:55.965Z,605.00
2024-05-09T06:27:55.982Z,606.00
2024-05-09T06:28:56.012Z,605.00
2024-05-09T06:29:55.969Z,606.00
2024-05-09T06:30:56.010Z,600.00
2024-05-09T06:31:59.490Z,603.00
2024-05-09T06:32:56.253Z,604.00
2024-05-09T06:33:56.154Z,604.00
2024-05-09T06:34:56.032Z,603.00
2024-05-09T06:35:56.047Z,604.00
2024-05-09T06:36:56.030Z,604.00
2024-05-09T06:37:56.058Z,605.00
2024-05-09T06:38:56.016Z,601.00
2024-05-09T06:39:56.067Z,601.00
2024-05-09T06:40:56.197Z,604.00
2024-05-09T06:41:56.194Z,601.00
2024-05-09T06:42:56.260Z,601.00
2024-05-09T06:43:56.393Z,603.00
2024-05-09T06:44:56.396Z,602.00
2024-05-09T06:45:56.462Z,603.00
2024-05-09T06:46:59.340Z,605.00
2024-05-09T06:47:56.670Z,605.00
2024-05-09T06:48:56.890Z,605.00
2024-05-09T06:49:56.569Z,606.00
2024-05-09T06:50:56.577Z,605.00
2024-05-09T06:51:56.540Z,606.00
2024-05-09T06:52:56.578Z,605.00
2024-05-09T06:53:56.539Z,603.00
2024-05-09T06:54:56.543Z,603.00
2024-05-09T06:55:56.567Z,603.00
2024-05-09T06:56:56.547Z,602.00
2024-05-09T06:57:56.559Z,601.00
2024-05-09T06:58:56.584Z,606.00
2024-05-09T06:59:56.646Z,604.00
2024-05-09T07:00:57.323Z,603.00
2024-05-09T07:01:56.594Z,609.00
2024-05-09T07:02:56.729Z,605.00
2024-05-09T07:03:56.760Z,603.00
2024-05-09T07:04:56.697Z,602.00
2024-05-09T07:05:56.691Z,603.00
2024-05-09T07:06:56.680Z,602.00
2024-05-09T07:07:56.688Z,604.00
2024-05-09T07:08:56.708Z,603.00
2024-05-09T07:09:56.752Z,606.00
2024-05-09T07:10:56.856Z,603.00
2024-05-09T07:11:57.053Z,604.00
2024-05-09T07:12:57.010Z,606.00
2024-05-09T07:13:57.133Z,606.00
2024-05-09T07:14:57.180Z,606.00
2024-05-09T07:15:57.270Z,602.00
2024-05-09T07:16:57.465Z,603.00
2024-05-09T07:17:57.618Z,602.00
2024-05-09T07:18:57.744Z,603.00
2024-05-09T07:19:57.659Z,602.00
2024-05-09T07:20:57.943Z,603.00
2024-05-09T07:21:57.789Z,603.00
2024-05-09T07:22:57.919Z,604.00
2024-05-09T07:23:58.028Z,604.00
2024-05-09T07:24:58.278Z,602.00
2024-05-09T07:25:58.236Z,605.00
2024-05-09T07:26:58.259Z,601.00
2024-05-09T07:27:58.353Z,604.00
2024-05-09T07:28:58.477Z,603.00
2024-05-09T07:29:58.540Z,604.00
2024-05-09T07:30:58.645Z,601.00
2024-05-09T07:31:58.750Z,602.00
2024-05-09T07:32:59.097Z,602.00
2024-05-09T07:33:59.055Z,605.00
2024-05-09T07:34:59.094Z,605.00
2024-05-09T07:35:59.116Z,601.00
2024-05-09T07:36:59.213Z,606.00
2024-05-09T07:37:59.335Z,603.00
2024-05-09T07:38:59.425Z,602.00
2024-05-09T07:39:59.494Z,601.00
2024-05-09T07:40:59.671Z,604.00
2024-05-09T07:41:59.697Z,604.00
2024-05-09T07:42:59.787Z,601.00
2024-05-09T07:43:59.931Z,602.00
2024-05-09T07:45:11.191Z,602.00
2024-05-09T07:46:28.580Z,602.00
2024-05-09T07:51:33.105Z,603.00
2024-05-09T07:53:00.850Z,603.00
2024-05-09T07:53:22.181Z,603.00
2024-05-09T07:53:35.931Z,603.00
2024-05-09T07:54:01.363Z,604.00
2024-05-09T07:55:00.275Z,603.00
2024-05-09T07:56:00.268Z,603.00
2024-05-09T07:57:00.248Z,606.00
2024-05-09T07:58:00.116Z,609.00
2024-05-09T07:59:00.039Z,614.00
2024-05-09T08:00:00.048Z,616.00
2024-05-09T08:01:00.123Z,612.00
2024-05-09T08:02:00.326Z,610.00
2024-05-09T08:03:00.096Z,609.00
2024-05-09T08:04:00.219Z,607.00
2024-05-09T08:05:00.158Z,607.00
2024-05-09T08:06:00.097Z,606.00
2024-05-09T08:07:00.098Z,606.00
2024-05-09T08:08:00.079Z,609.00
2024-05-09T08:09:03.112Z,605.00
2024-05-09T08:10:00.097Z,606.00
2024-05-09T08:11:00.083Z,607.00
2024-05-09T08:12:00.063Z,607.00
2024-05-09T08:13:00.160Z,607.00
2024-05-09T08:14:00.122Z,605.00
2024-05-09T08:15:00.102Z,606.00
2024-05-09T08:16:00.320Z,605.00
2024-05-09T08:17:00.144Z,604.00
2024-05-09T08:18:00.353Z,604.00
2024-05-09T08:19:00.397Z,607.00
2024-05-09T08:20:01.009Z,601.00
2024-05-09T08:21:00.135Z,607.00
2024-05-09T08:22:00.132Z,610.00
2024-05-09T08:23:00.108Z,605.00
2024-05-09T08:24:00.112Z,602.00
2024-05-09T08:25:00.159Z,603.00
2024-05-09T08:26:00.107Z,604.00
2024-05-09T08:27:00.133Z,600.00
2024-05-09T08:28:00.184Z,603.00
2024-05-09T08:29:00.130Z,604.00
2024-05-09T08:30:00.166Z,605.00
2024-05-09T08:31:01.738Z,605.00
2024-05-09T08:32:00.204Z,606.00
2024-05-09T08:33:00.213Z,606.00
2024-05-09T08:34:00.303Z,606.00
2024-05-09T08:35:00.218Z,606.00
2024-05-09T08:36:00.130Z,605.00
2024-05-09T08:37:03.837Z,605.00
2024-05-09T08:38:00.355Z,605.00
2024-05-09T08:39:00.131Z,606.00
2024-05-09T08:40:00.266Z,606.00
2024-05-09T08:41:00.141Z,608.00
2024-05-09T08:42:00.130Z,609.00
2024-05-09T08:43:00.251Z,607.00
2024-05-09T08:44:00.167Z,603.00
2024-05-09T08:45:00.184Z,605.00
2024-05-09T08:46:00.208Z,605.00
2024-05-09T08:47:00.158Z,603.00
2024-05-09T08:48:00.323Z,599.00
2024-05-09T08:49:00.481Z,600.00
2024-05-09T08:50:00.298Z,605.00
2024-05-09T08:51:00.176Z,608.00
2024-05-09T08:52:00.226Z,600.00
2024-05-09T08:53:00.157Z,602.00
2024-05-09T08:54:00.153Z,607.00
2024-05-09T08:55:00.312Z,605.00
2024-05-09T08:56:00.198Z,605.00
2024-05-09T08:57:00.208Z,606.00
2024-05-09T08:58:00.264Z,602.00
2024-05-09T08:59:00.206Z,604.00
2024-05-09T09:00:00.207Z,604.00
2024-05-09T09:01:00.457Z,603.00
2024-05-09T09:02:00.321Z,603.00
2024-05-09T09:03:00.257Z,603.00
2024-05-09T09:04:00.414Z,604.00
2024-05-09T09:05:00.432Z,607.00
2024-05-09T09:06:00.224Z,604.00
2024-05-09T09:07:00.442Z,608.00
2024-05-09T09:08:00.223Z,605.00
2024-05-09T09:09:00.223Z,607.00
2024-05-09T09:10:00.439Z,609.00
2024-05-09T09:11:00.224Z,610.00
2024-05-09T09:12:00.251Z,605.00
2024-05-09T09:13:00.267Z,599.00
2024-05-09T09:14:00.220Z,610.00
2024-05-09T09:15:00.235Z,612.00
2024-05-09T09:16:00.456Z,605.00
2024-05-09T09:17:00.238Z,610.00
2024-05-09T09:18:00.823Z,604.00
2024-05-09T09:19:00.340Z,612.00
2024-05-09T09:20:00.518Z,605.00
2024-05-09T09:21:00.245Z,610.00
2024-05-09T09:22:00.323Z,608.00
2024-05-09T09:23:00.261Z,602.00
2024-05-09T09:24:00.280Z,614.00
2024-05-09T09:25:00.307Z,613.00
2024-05-09T09:26:00.346Z,612.00
2024-05-09T09:27:00.262Z,612.00
2024-05-09T09:28:00.334Z,606.00
2024-05-09T09:29:00.399Z,607.00
2024-05-09T09:30:00.547Z,609.00
2024-05-09T09:31:00.771Z,613.00
2024-05-09T09:32:32.530Z,600.00
2024-05-09T09:33:33.564Z,600.00
2024-05-09T09:34:33.336Z,600.00
2024-05-09T09:35:33.169Z,600.00
2024-05-09T09:36:33.197Z,600.00
2024-05-09T09:37:33.174Z,600.00
2024-05-09T09:38:33.165Z,605.00
2024-05-09T09:39:33.188Z,605.00
2024-05-09T09:40:35.824Z,604.00
2024-05-09T09:41:33.178Z,605.00
2024-05-09T09:42:33.210Z,606.00
2024-05-09T09:43:33.174Z,607.00
2024-05-09T09:44:34.175Z,598.00
2024-05-09T09:45:33.203Z,609.00
2024-05-09T09:46:33.215Z,603.00
2024-05-09T09:47:33.286Z,603.00
2024-05-09T09:48:33.627Z,603.00
2024-05-09T09:49:33.198Z,604.00
2024-05-09T09:50:34.837Z,608.00
2024-05-09T09:51:33.228Z,613.00
2024-05-09T09:52:33.244Z,615.00
2024-05-09T09:53:33.192Z,606.00
2024-05-09T09:54:33.229Z,615.00
2024-05-09T09:55:33.179Z,600.00
2024-05-09T09:56:33.183Z,610.00
2024-05-09T09:57:33.203Z,616.00
2024-05-09T09:58:33.220Z,608.00
2024-05-09T09:59:33.186Z,599.00
2024-05-09T10:00:34.070Z,612.00
2024-05-09T10:01:33.304Z,613.00
2024-05-09T10:02:33.394Z,611.00
2024-05-09T10:03:33.515Z,616.00
2024-05-09T10:04:33.266Z,604.00
2024-05-09T10:05:33.517Z,614.00
2024-05-09T10:06:33.265Z,617.00
2024-05-09T10:07:33.247Z,611.00
2024-05-09T10:08:33.237Z,610.00
2024-05-09T10:09:33.260Z,610.00
2024-05-09T10:10:33.572Z,618.00
2024-05-09T10:11:39.544Z,612.00
2024-05-09T10:12:33.486Z,612.00
2024-05-09T10:13:33.364Z,613.00
2024-05-09T10:14:33.298Z,615.00
2024-05-09T10:15:33.338Z,618.00
2024-05-09T10:16:33.360Z,619.00
2024-05-09T10:17:33.478Z,612.00
2024-05-09T10:18:34.409Z,616.00
2024-05-09T10:19:33.599Z,612.00
2024-05-09T10:20:33.464Z,612.00
2024-05-09T10:21:33.418Z,615.00
2024-05-09T10:22:33.325Z,608.00
2024-05-09T10:23:33.332Z,605.00
2024-05-09T10:24:33.355Z,607.00
2024-05-09T10:25:33.337Z,614.00
2024-05-09T10:26:33.317Z,612.00
2024-05-09T10:27:33.430Z,606.00
2024-05-09T10:28:33.491Z,616.00
2024-05-09T10:29:33.586Z,616.00
2024-05-09T10:30:36.268Z,614.00
2024-05-09T10:31:33.703Z,614.00
2024-05-09T10:32:33.741Z,613.00
2024-05-09T10:33:33.852Z,616.00
2024-05-09T10:34:33.730Z,611.00
2024-05-09T10:35:33.714Z,607.00
2024-05-09T10:36:33.732Z,616.00
2024-05-09T10:37:33.738Z,614.00
2024-05-09T10:38:33.710Z,609.00
2024-05-09T10:39:33.759Z,614.00
2024-05-09T10:40:33.778Z,609.00
2024-05-09T10:41:33.712Z,604.00
2024-05-09T10:42:33.802Z,614.00
2024-05-09T10:43:33.726Z,606.00
2024-05-09T10:44:33.723Z,614.00
2024-05-09T10:45:33.746Z,618.00
2024-05-09T10:46:33.723Z,611.00
2024-05-09T10:47:33.908Z,616.00
2024-05-09T10:48:33.895Z,607.00
2024-05-09T10:49:33.838Z,617.00
2024-05-09T10:50:34.624Z,615.00
2024-05-09T10:51:33.747Z,615.00
2024-05-09T10:52:33.746Z,608.00
2024-05-09T10:53:33.752Z,614.00
2024-05-09T10:54:33.769Z,618.00
2024-05-09T10:55:33.776Z,610.00
2024-05-09T10:56:33.814Z,620.00
2024-05-09T10:57:33.972Z,620.00
2024-05-09T10:58:34.020Z,623.00
2024-05-09T10:59:34.131Z,600.00
2024-05-09T11:00:36.343Z,611.00
2024-05-09T11:01:34.354Z,609.00
2024-05-09T11:02:34.340Z,620.00
2024-05-09T11:03:34.638Z,618.00
2024-05-09T11:04:34.384Z,621.00
2024-05-09T11:05:34.348Z,614.00
2024-05-09T11:06:34.272Z,614.00
2024-05-09T11:07:34.270Z,623.00
2024-05-09T11:08:34.238Z,616.00
2024-05-09T11:09:34.250Z,611.00
2024-05-09T11:10:34.785Z,610.00
2024-05-09T11:11:34.262Z,615.00
2024-05-09T11:12:34.261Z,617.00
2024-05-09T11:13:34.236Z,616.00
2024-05-09T11:14:34.231Z,602.00
2024-05-09T11:15:34.286Z,616.00
2024-05-09T11:16:34.232Z,611.00
2024-05-09T11:17:34.278Z,605.00
2024-05-09T11:18:37.896Z,615.00
2024-05-09T11:19:34.364Z,616.00
2024-05-09T11:20:35.340Z,618.00
2024-05-09T11:21:34.274Z,620.00
2024-05-09T11:22:34.276Z,619.00
2024-05-09T11:23:34.343Z,621.00
2024-05-09T11:24:34.390Z,625.00
2024-05-09T11:25:34.336Z,619.00
2024-05-09T11:26:34.342Z,612.00
2024-05-09T11:27:34.405Z,629.00
2024-05-09T11:28:34.517Z,624.00
2024-05-09T11:29:34.577Z,615.00
2024-05-09T11:30:34.776Z,620.00
2024-05-09T11:31:34.838Z,614.00
2024-05-09T11:32:35.069Z,626.00
2024-05-09T11:33:35.053Z,614.00
2024-05-09T11:34:35.159Z,621.00
2024-05-09T11:35:35.168Z,616.00
2024-05-09T11:36:35.428Z,623.00
2024-05-09T11:37:37.153Z,613.00
2024-05-09T11:38:35.406Z,624.00
2024-05-09T11:39:35.374Z,627.00
2024-05-09T11:40:36.475Z,612.00
2024-05-09T11:41:35.359Z,622.00
2024-05-09T11:42:35.424Z,612.00
2024-05-09T11:43:35.428Z,617.00
2024-05-09T11:44:35.373Z,621.00
2024-05-09T11:45:35.412Z,620.00
2024-05-09T11:46:35.398Z,614.00
2024-05-09T11:47:35.579Z,613.00
2024-05-09T11:48:35.747Z,613.00
2024-05-09T11:49:35.804Z,621.00
2024-05-09T11:50:36.378Z,626.00
2024-05-09T11:51:35.856Z,622.00
2024-05-09T11:52:35.812Z,616.00
2024-05-09T11:53:35.835Z,618.00
2024-05-09T11:54:35.871Z,622.00
2024-05-09T11:55:35.961Z,617.00
2024-05-09T11:56:36.054Z,625.00
2024-05-09T11:57:36.084Z,614.00
2024-05-09T11:58:36.132Z,625.00
2024-05-09T11:59:36.228Z,623.00
2024-05-09T12:00:37.679Z,614.00
2024-05-09T12:01:36.431Z,614.00
2024-05-09T12:02:36.410Z,627.00
2024-05-09T12:03:36.427Z,624.00
2024-05-09T12:04:36.469Z,619.00
2024-05-09T12:05:36.462Z,621.00
2024-05-09T12:06:36.372Z,613.00
2024-05-09T12:07:36.337Z,620.00
2024-05-09T12:08:36.351Z,619.00
2024-05-09T12:09:36.370Z,617.00
2024-05-09T12:10:37.107Z,619.00
2024-05-09T12:11:36.383Z,620.00
2024-05-09T12:12:37.405Z,624.00
2024-05-09T12:13:36.382Z,618.00
2024-05-09T12:14:36.369Z,620.00
2024-05-09T12:15:37.529Z,621.00
2024-05-09T12:16:36.435Z,625.00
2024-05-09T12:17:36.464Z,630.00
2024-05-09T12:18:36.453Z,624.00
2024-05-09T12:19:36.434Z,616.00
2024-05-09T12:20:39.176Z,616.00
2024-05-09T12:21:36.376Z,617.00
2024-05-09T12:22:36.837Z,617.00
2024-05-09T12:23:36.370Z,615.00
2024-05-09T12:24:36.383Z,616.00
2024-05-09T12:25:36.377Z,622.00
2024-05-09T12:26:36.377Z,621.00
2024-05-09T12:27:36.449Z,615.00
2024-05-09T12:28:36.399Z,621.00
2024-05-09T12:29:38.651Z,624.00
2024-05-09T12:30:39.512Z,627.00
2024-05-09T12:31:36.657Z,627.00
2024-05-09T12:32:36.743Z,627.00
2024-05-09T12:33:36.780Z,625.00